Time;durP1;ratioP1;P1;durP2;ratioP2;P2;SDS_P1;SDS_P2;PMS_P1;PMS_P2;Temp;Humidity;BMP_temperature;BMP_pressure;BME280_temperature;BME280_humidity;BME280_pressure;Samples;Min_cycle;Max_cycle;Signal;HPM_P1;HPM_P2
2023/02/08 00:01:13;;;;;;;41.80;28.67;;;;;;;;;;5030253;28;20046;-56
2023/02/08 00:03:39;;;;;;;44.35;27.50;;;;;;;;;;5027803;28;20021;-55
2023/02/08 00:06:05;;;;;;;44.42;29.45;;;;;;;;;;5034074;28;20358;-55
2023/02/08 00:08:32;;;;;;;40.92;26.95;;;;;;;;;;5034175;28;20027;-54
2023/02/08 00:10:58;;;;;;;40.10;27.38;;;;;;;;;;5016160;28;20029;-54
2023/02/08 00:13:24;;;;;;;42.70;27.85;;;;;;;;;;5033035;28;20425;-58
2023/02/08 00:15:51;;;;;;;38.72;26.65;;;;;;;;;;5015875;28;20072;-55
2023/02/08 00:18:17;;;;;;;39.72;26.75;;;;;;;;;;5033919;28;20025;-56
2023/02/08 00:20:44;;;;;;;40.25;27.35;;;;;;;;;;5016389;28;20025;-57
2023/02/08 00:23:10;;;;;;;39.58;27.58;;;;;;;;;;5032694;28;20037;-53
2023/02/08 00:25:37;;;;;;;40.58;26.13;;;;;;;;;;5034098;28;20032;-54
2023/02/08 00:28:03;;;;;;;42.60;29.83;;;;;;;;;;5034199;28;20025;-52
2023/02/08 00:30:29;;;;;;;42.90;27.55;;;;;;;;;;5022795;28;20056;-52
2023/02/08 00:32:55;;;;;;;41.88;28.88;;;;;;;;;;5028797;28;20443;-51
2023/02/08 00:35:21;;;;;;;41.80;28.65;;;;;;;;;;5007328;28;20044;-50
2023/02/08 00:37:47;;;;;;;44.63;28.27;;;;;;;;;;5025326;28;20039;-56
2023/02/08 00:40:13;;;;;;;44.35;28.42;;;;;;;;;;5033887;28;20021;-53
2023/02/08 00:42:39;;;;;;;40.95;27.23;;;;;;;;;;5025211;28;20044;-51
2023/02/08 00:45:05;;;;;;;41.58;28.70;;;;;;;;;;5015954;28;20072;-53
2023/02/08 00:47:31;;;;;;;40.67;27.95;;;;;;;;;;5013958;28;20097;-53
2023/02/08 00:49:57;;;;;;;40.53;29.17;;;;;;;;;;4347957;23;10000737;-66
2023/02/08 00:52:23;;;;;;;41.25;27.52;;;;;;;;;;5016262;28;20033;-66
2023/02/08 00:54:49;;;;;;;39.97;28.20;;;;;;;;;;5015346;28;20093;-66
2023/02/08 00:57:15;;;;;;;37.88;25.80;;;;;;;;;;5035162;28;20021;-64
2023/02/08 00:59:41;;;;;;;36.05;25.73;;;;;;;;;;5034817;28;20025;-64
2023/02/08 01:02:07;;;;;;;37.17;26.02;;;;;;;;;;5016907;28;20036;-64
2023/02/08 01:04:33;;;;;;;40.13;25.48;;;;;;;;;;5034206;28;20010;-65
2023/02/08 01:06:59;;;;;;;35.53;25.30;;;;;;;;;;5034396;28;20508;-64
2023/02/08 01:09:25;;;;;;;35.60;24.27;;;;;;;;;;5017188;28;20021;-64
2023/02/08 01:11:51;;;;;;;40.58;26.80;;;;;;;;;;5035011;28;20025;-64
2023/02/08 01:14:17;;;;;;;41.10;27.90;;;;;;;;;;5016057;28;20116;-65
2023/02/08 01:16:43;;;;;;;40.53;27.38;;;;;;;;;;5034389;28;20017;-64
2023/02/08 01:19:09;;;;;;;35.70;25.35;;;;;;;;;;5034290;28;20018;-64
2023/02/08 01:21:37;;;;;;;38.45;26.10;;;;;;;;;;5015749;28;20053;-64
2023/02/08 01:24:03;;;;;;;37.63;27.07;;;;;;;;;;5034062;28;20022;-65
2023/02/08 01:26:29;;;;;;;38.00;25.85;;;;;;;;;;5034964;28;20026;-64
2023/02/08 01:28:55;;;;;;;34.25;25.15;;;;;;;;;;5034613;28;20032;-64
2023/02/08 01:31:23;;;;;;;36.92;25.13;;;;;;;;;;5035237;28;20032;-65
2023/02/08 01:33:49;;;;;;;36.15;24.88;;;;;;;;;;5033989;28;20543;-65
2023/02/08 01:36:15;;;;;;;39.05;25.75;;;;;;;;;;5033730;28;20028;-64
2023/02/08 01:38:42;;;;;;;39.55;26.15;;;;;;;;;;5016031;28;20045;-65
2023/02/08 01:41:10;;;;;;;41.10;27.15;;;;;;;;;;5015701;28;20033;-65
2023/02/08 01:43:55;;;;;;;36.63;25.20;;;;;;;;;;5013371;28;20057;-64
2023/02/08 01:46:21;;;;;;;39.83;27.52;;;;;;;;;;5013839;28;20194;-64
2023/02/08 01:48:48;;;;;;;38.20;27.13;;;;;;;;;;5014176;28;20084;-65
2023/02/08 01:51:19;;;;;;;40.47;26.20;;;;;;;;;;5013944;28;20076;-64
2023/02/08 01:53:46;;;;;;;33.67;24.10;;;;;;;;;;5012958;28;20029;-65
2023/02/08 01:56:21;;;;;;;39.80;26.60;;;;;;;;;;5014123;28;20025;-64
2023/02/08 01:58:50;;;;;;;41.83;27.13;;;;;;;;;;4996593;28;20025;-64
2023/02/08 02:01:17;;;;;;;36.88;25.17;;;;;;;;;;5013452;28;20072;-64
2023/02/08 02:03:43;;;;;;;413.65;205.30;;;;;;;;;;5010832;28;20078;-64
2023/02/08 02:06:12;;;;;;;397.20;197.93;;;;;;;;;;5016052;28;20022;-64
2023/02/08 02:08:40;;;;;;;189.45;103.57;;;;;;;;;;5015789;28;20030;-64
2023/02/08 02:11:06;;;;;;;84.65;51.67;;;;;;;;;;5015962;28;20366;-64
2023/02/08 02:13:32;;;;;;;47.55;30.17;;;;;;;;;;5014343;28;20114;-65
2023/02/08 02:15:58;;;;;;;40.90;26.38;;;;;;;;;;5032631;28;20109;-66
2023/02/08 02:18:29;;;;;;;43.05;27.95;;;;;;;;;;5032696;28;20053;-64
2023/02/08 02:21:10;;;;;;;40.35;27.17;;;;;;;;;;5031821;28;20018;-64
2023/02/08 02:23:54;;;;;;;42.03;27.35;;;;;;;;;;5032590;28;20028;-64
2023/02/08 02:26:35;;;;;;;37.90;27.35;;;;;;;;;;5031554;28;20028;-65
2023/02/08 02:29:04;;;;;;;42.72;26.95;;;;;;;;;;5032330;28;20088;-65
2023/02/08 02:31:35;;;;;;;36.50;25.67;;;;;;;;;;5014454;28;20026;-65
2023/02/08 02:34:04;;;;;;;39.72;26.42;;;;;;;;;;5031436;28;20040;-63
2023/02/08 02:36:35;;;;;;;44.35;30.00;;;;;;;;;;5032265;28;20021;-64
2023/02/08 02:39:20;;;;;;;38.10;25.58;;;;;;;;;;5014339;28;20035;-65
2023/02/08 02:45:07;;;;;;;36.85;25.52;;;;;;;;;;5011690;28;20501;-64
2023/02/08 02:47:49;;;;;;;42.60;25.83;;;;;;;;;;5011931;28;20573;-65
2023/02/08 02:50:15;;;;;;;40.17;26.02;;;;;;;;;;5011296;28;20076;-65
2023/02/08 02:52:47;;;;;;;38.60;25.80;;;;;;;;;;5011481;28;20080;-65
2023/02/08 02:55:14;;;;;;;40.92;25.50;;;;;;;;;;5010915;28;20378;-65
2023/02/08 02:57:42;;;;;;;39.83;26.40;;;;;;;;;;4993774;28;20493;-64
2023/02/08 03:00:09;;;;;;;38.95;28.30;;;;;;;;;;4993671;28;20034;-65
2023/02/08 03:02:35;;;;;;;37.85;27.58;;;;;;;;;;5011227;28;20026;-65
2023/02/08 03:05:02;;;;;;;42.25;27.65;;;;;;;;;;5010485;28;20026;-65
2023/02/08 03:07:47;;;;;;;36.95;27.05;;;;;;;;;;4999216;28;20029;-66
2023/02/08 03:10:19;;;;;;;43.05;28.45;;;;;;;;;;5030346;28;20021;-65
2023/02/08 03:12:45;;;;;;;37.58;25.85;;;;;;;;;;5012592;28;20163;-65
2023/02/08 03:15:11;;;;;;;40.95;28.25;;;;;;;;;;5029994;28;20096;-65
2023/02/08 03:17:56;;;;;;;35.65;26.52;;;;;;;;;;5030484;28;20024;-64
2023/02/08 03:20:25;;;;;;;42.72;27.92;;;;;;;;;;5012814;28;20018;-64
2023/02/08 03:23:06;;;;;;;40.85;26.83;;;;;;;;;;5030788;28;20022;-64
2023/02/08 03:25:56;;;;;;;35.47;25.80;;;;;;;;;;5020785;28;20049;-65
2023/02/08 03:28:22;;;;;;;38.50;25.13;;;;;;;;;;5017487;28;20037;-64
2023/02/08 03:30:51;;;;;;;38.60;25.60;;;;;;;;;;4999493;28;20056;-65
2023/02/08 03:33:23;;;;;;;38.25;26.73;;;;;;;;;;4998786;28;20022;-64
2023/02/08 03:35:56;;;;;;;39.22;25.90;;;;;;;;;;5000765;28;20017;-64
2023/02/08 03:38:29;;;;;;;35.30;25.15;;;;;;;;;;5030494;28;20383;-64
2023/02/08 03:40:58;;;;;;;38.60;26.95;;;;;;;;;;5033119;28;20060;-65
2023/02/08 03:43:31;;;;;;;38.80;27.80;;;;;;;;;;5004184;28;20094;-64
2023/02/08 03:46:02;;;;;;;36.55;26.60;;;;;;;;;;5018415;28;20077;-65
2023/02/08 03:48:29;;;;;;;37.83;26.58;;;;;;;;;;5018864;28;20041;-64
2023/02/08 03:50:56;;;;;;;38.42;26.55;;;;;;;;;;5034778;28;20052;-65
2023/02/08 03:53:23;;;;;;;33.63;24.35;;;;;;;;;;5013407;28;20073;-65
2023/02/08 03:55:52;;;;;;;43.25;27.35;;;;;;;;;;5034714;28;20091;-64
2023/02/08 03:58:26;;;;;;;40.45;27.80;;;;;;;;;;5030871;28;20024;-65
2023/02/08 04:00:55;;;;;;;39.17;26.85;;;;;;;;;;5036770;28;20017;-65
2023/02/08 04:03:24;;;;;;;38.10;26.08;;;;;;;;;;4998700;28;20525;-64
2023/02/08 04:05:50;;;;;;;41.10;26.08;;;;;;;;;;5018084;28;20026;-65
2023/02/08 04:08:16;;;;;;;37.25;25.88;;;;;;;;;;5014046;28;20032;-65
2023/02/08 04:10:42;;;;;;;37.00;26.35;;;;;;;;;;5017078;28;20088;-65
2023/02/08 04:13:08;;;;;;;40.08;27.02;;;;;;;;;;4998451;28;20029;-65
2023/02/08 04:15:34;;;;;;;36.25;25.20;;;;;;;;;;4999063;28;20032;-64
2023/02/08 04:18:00;;;;;;;34.88;24.45;;;;;;;;;;5016983;28;20018;-65
2023/02/08 04:20:26;;;;;;;38.70;25.63;;;;;;;;;;5008325;28;20057;-66
2023/02/08 04:22:52;;;;;;;34.10;24.48;;;;;;;;;;5013069;28;20121;-64
2023/02/08 04:25:18;;;;;;;37.97;25.95;;;;;;;;;;5030377;28;20021;-64
2023/02/08 04:27:44;;;;;;;38.10;25.52;;;;;;;;;;5035234;28;20054;-69
2023/02/08 04:30:10;;;;;;;34.90;25.42;;;;;;;;;;5028877;28;20033;-64
2023/02/08 04:32:36;;;;;;;37.85;26.35;;;;;;;;;;5036090;28;20066;-65
2023/02/08 04:35:03;;;;;;;38.10;26.95;;;;;;;;;;5009542;28;20014;-65
2023/02/08 04:37:29;;;;;;;34.67;26.08;;;;;;;;;;5033173;28;20075;-64
2023/02/08 04:39:55;;;;;;;41.08;27.98;;;;;;;;;;5033283;28;20024;-64
2023/02/08 04:42:21;;;;;;;40.22;26.52;;;;;;;;;;5015400;28;20021;-65
2023/02/08 04:44:47;;;;;;;39.72;26.08;;;;;;;;;;5032395;28;20072;-64
2023/02/08 04:47:13;;;;;;;35.05;24.40;;;;;;;;;;5033289;28;20029;-65
2023/02/08 04:49:39;;;;;;;40.05;27.40;;;;;;;;;;5033029;28;20328;-65
2023/02/08 04:52:05;;;;;;;36.03;24.67;;;;;;;;;;5032887;28;20037;-66
2023/02/08 04:54:31;;;;;;;32.95;24.55;;;;;;;;;;4999099;28;20018;-65
2023/02/08 04:56:57;;;;;;;37.67;25.35;;;;;;;;;;4999913;28;20068;-65
2023/02/08 04:59:23;;;;;;;37.13;25.50;;;;;;;;;;5024567;28;20053;-64
2023/02/08 05:01:49;;;;;;;39.30;26.85;;;;;;;;;;5013122;28;20049;-65
2023/02/08 05:04:15;;;;;;;38.72;25.92;;;;;;;;;;4994537;28;20759;-65
2023/02/08 05:06:41;;;;;;;41.45;26.33;;;;;;;;;;5013039;28;20026;-66
2023/02/08 05:09:08;;;;;;;39.60;27.67;;;;;;;;;;4995681;28;20487;-66
2023/02/08 05:11:35;;;;;;;33.13;24.00;;;;;;;;;;4995210;28;20029;-66
2023/02/08 05:14:01;;;;;;;36.58;26.10;;;;;;;;;;5012061;28;20486;-65
2023/02/08 05:16:27;;;;;;;36.72;26.50;;;;;;;;;;5012754;28;20022;-66
2023/02/08 05:18:55;;;;;;;41.20;26.73;;;;;;;;;;5012633;28;20024;-65
2023/02/08 05:21:22;;;;;;;36.40;26.33;;;;;;;;;;4995064;28;20017;-65
2023/02/08 05:23:48;;;;;;;39.15;28.08;;;;;;;;;;5011912;28;20113;-65
2023/02/08 05:26:14;;;;;;;39.80;28.02;;;;;;;;;;4995028;28;20046;-65
2023/02/08 05:28:40;;;;;;;35.75;27.70;;;;;;;;;;5008312;28;20030;-66
2023/02/08 05:31:14;;;;;;;37.70;27.73;;;;;;;;;;5014222;28;20029;-66
2023/02/08 05:33:40;;;;;;;39.83;27.63;;;;;;;;;;5031514;28;20033;-65
2023/02/08 05:36:06;;;;;;;45.80;27.17;;;;;;;;;;5014489;28;20025;-65
2023/02/08 05:38:32;;;;;;;37.35;27.50;;;;;;;;;;5014162;28;20025;-64
2023/02/08 05:40:58;;;;;;;51.95;29.92;;;;;;;;;;5014196;28;20028;-65
2023/02/08 05:43:24;;;;;;;37.22;28.00;;;;;;;;;;5031486;28;20029;-65
2023/02/08 05:45:50;;;;;;;34.65;26.27;;;;;;;;;;5032134;28;20079;-64
2023/02/08 05:48:17;;;;;;;49.15;29.45;;;;;;;;;;5012905;28;20029;-65
2023/02/08 05:50:43;;;;;;;37.08;27.75;;;;;;;;;;5013562;28;20644;-66
2023/02/08 05:53:09;;;;;;;36.80;27.27;;;;;;;;;;5030858;28;20079;-65
2023/02/08 05:55:35;;;;;;;38.03;27.52;;;;;;;;;;5031472;28;20507;-65
2023/02/08 05:58:01;;;;;;;40.42;27.70;;;;;;;;;;5018196;28;20052;-66
2023/02/08 06:00:27;;;;;;;39.22;25.80;;;;;;;;;;5019374;28;20096;-66
2023/02/08 06:02:53;;;;;;;38.92;28.13;;;;;;;;;;5031144;28;20032;-67
2023/02/08 06:05:19;;;;;;;37.45;25.75;;;;;;;;;;5030412;28;20022;-66
2023/02/08 06:07:45;;;;;;;38.50;27.38;;;;;;;;;;5013431;28;20048;-66
2023/02/08 06:10:11;;;;;;;38.45;27.05;;;;;;;;;;5031156;28;20076;-67
2023/02/08 06:12:37;;;;;;;37.35;26.88;;;;;;;;;;5030943;28;20480;-66
2023/02/08 06:15:03;;;;;;;37.28;26.05;;;;;;;;;;5030307;28;20018;-67
2023/02/08 06:17:29;;;;;;;37.22;27.15;;;;;;;;;;5012908;28;20129;-68
2023/02/08 06:19:55;;;;;;;34.80;25.42;;;;;;;;;;5030915;28;20057;-66
2023/02/08 06:22:21;;;;;;;36.75;26.05;;;;;;;;;;5030678;28;20036;-67
2023/02/08 06:24:47;;;;;;;40.55;25.88;;;;;;;;;;5027528;28;20120;-69
2023/02/08 06:27:13;;;;;;;39.10;25.92;;;;;;;;;;5026319;28;20079;-67
2023/02/08 06:29:39;;;;;;;36.22;25.17;;;;;;;;;;5020460;28;20030;-66
2023/02/08 06:32:05;;;;;;;37.10;25.17;;;;;;;;;;5010554;28;20470;-66
2023/02/08 06:34:31;;;;;;;38.95;25.60;;;;;;;;;;5010056;28;20415;-67
2023/02/08 06:37:00;;;;;;;34.08;24.73;;;;;;;;;;5011028;28;20073;-65
2023/02/08 06:39:27;;;;;;;38.25;25.98;;;;;;;;;;5010526;28;20017;-65
2023/02/08 06:41:53;;;;;;;32.38;24.17;;;;;;;;;;5013855;28;20327;-66
2023/02/08 06:44:19;;;;;;;35.58;24.95;;;;;;;;;;5015090;28;20033;-66
2023/02/08 06:46:45;;;;;;;39.70;23.50;;;;;;;;;;5011106;28;20037;-66
2023/02/08 06:49:11;;;;;;;39.22;25.88;;;;;;;;;;5010001;28;20072;-66
2023/02/08 06:51:37;;;;;;;37.92;26.90;;;;;;;;;;5026274;23;20046;-58
2023/02/08 06:54:03;;;;;;;34.95;25.33;;;;;;;;;;4992356;28;20402;-53
2023/02/08 06:56:29;;;;;;;36.05;24.50;;;;;;;;;;4992871;28;20056;-62
2023/02/08 06:58:56;;;;;;;39.53;24.63;;;;;;;;;;5010230;28;20470;-57
2023/02/08 07:01:22;;;;;;;36.50;22.70;;;;;;;;;;5011047;28;20121;-61
2023/02/08 07:03:47;;;;;;;35.88;24.73;;;;;;;;;;5010659;28;20076;-61
2023/02/08 07:06:14;;;;;;;36.15;24.80;;;;;;;;;;5011376;28;20034;-61
2023/02/08 07:08:40;;;;;;;34.35;23.38;;;;;;;;;;5010952;28;20070;-58
2023/02/08 07:11:07;;;;;;;40.22;25.23;;;;;;;;;;4993278;28;20191;-64
2023/02/08 07:13:33;;;;;;;42.70;25.85;;;;;;;;;;5009855;28;20121;-56
2023/02/08 07:15:59;;;;;;;37.13;26.35;;;;;;;;;;5010709;28;20026;-58
2023/02/08 07:18:25;;;;;;;36.35;23.25;;;;;;;;;;4992955;28;20044;-62
2023/02/08 07:20:51;;;;;;;36.75;25.02;;;;;;;;;;4993378;28;20022;-59
2023/02/08 07:23:17;;;;;;;36.45;23.02;;;;;;;;;;4992313;28;20034;-63
2023/02/08 07:25:44;;;;;;;39.88;24.98;;;;;;;;;;5011163;28;20052;-61
2023/02/08 07:28:10;;;;;;;38.78;24.05;;;;;;;;;;5014039;28;20560;-60
2023/02/08 07:30:36;;;;;;;39.53;23.33;;;;;;;;;;5013265;28;20145;-62
2023/02/08 07:33:02;;;;;;;37.97;23.17;;;;;;;;;;5029983;28;20060;-59
2023/02/08 07:35:28;;;;;;;36.05;23.20;;;;;;;;;;5030852;28;20435;-63
2023/02/08 07:37:54;;;;;;;34.70;22.40;;;;;;;;;;5031273;28;20048;-62
2023/02/08 07:40:20;;;;;;;34.40;22.60;;;;;;;;;;5013047;28;20144;-59
2023/02/08 07:42:46;;;;;;;37.50;23.30;;;;;;;;;;5013187;28;20025;-64
2023/02/08 07:45:12;;;;;;;34.47;22.65;;;;;;;;;;5030071;28;20093;-61
2023/02/08 07:47:38;;;;;;;35.00;22.48;;;;;;;;;;5031217;28;20483;-63
2023/02/08 07:50:05;;;;;;;34.67;23.13;;;;;;;;;;4999835;28;20029;-64
2023/02/08 07:52:31;;;;;;;37.70;23.70;;;;;;;;;;5011494;28;20509;-64
2023/02/08 07:54:57;;;;;;;33.65;22.02;;;;;;;;;;5010569;28;20029;-61
2023/02/08 07:57:23;;;;;;;31.00;21.48;;;;;;;;;;5011534;28;20026;-62
2023/02/08 07:59:49;;;;;;;37.90;22.70;;;;;;;;;;5020666;28;20397;-61
2023/02/08 08:02:15;;;;;;;36.80;22.92;;;;;;;;;;5013377;28;20110;-61
2023/02/08 08:04:41;;;;;;;33.35;22.80;;;;;;;;;;5030514;28;20109;-61
2023/02/08 08:07:07;;;;;;;37.30;20.70;;;;;;;;;;5013770;28;20080;-63
2023/02/08 08:09:33;;;;;;;33.42;21.38;;;;;;;;;;5013386;28;20071;-60
2023/02/08 08:11:59;;;;;;;34.58;21.10;;;;;;;;;;5032014;28;20429;-62
2023/02/08 08:14:25;;;;;;;35.05;23.10;;;;;;;;;;5033895;28;20033;-62
2023/02/08 08:16:51;;;;;;;32.38;20.73;;;;;;;;;;5034970;28;20032;-64
2023/02/08 08:19:17;;;;;;;32.95;20.30;;;;;;;;;;5030257;28;20030;-63
2023/02/08 08:21:43;;;;;;;33.10;20.25;;;;;;;;;;5015048;28;20191;-63
2023/02/08 08:24:09;;;;;;;30.23;20.23;;;;;;;;;;4996112;28;20033;-63
2023/02/08 08:26:35;;;;;;;30.40;20.77;;;;;;;;;;4996917;28;20048;-61
2023/02/08 08:29:01;;;;;;;30.83;19.90;;;;;;;;;;5014518;28;20022;-62
2023/02/08 08:31:29;;;;;;;34.13;20.10;;;;;;;;;;5014312;28;20049;-63
2023/02/08 08:33:55;;;;;;;31.80;21.50;;;;;;;;;;4995965;28;20029;-64
2023/02/08 08:36:21;;;;;;;32.08;20.25;;;;;;;;;;4996883;28;20430;-60
2023/02/08 08:38:47;;;;;;;29.67;19.15;;;;;;;;;;5014270;28;20029;-61
2023/02/08 08:41:21;;;;;;;31.40;20.20;;;;;;;;;;5014279;28;20022;-60
2023/02/08 08:43:47;;;;;;;30.25;19.67;;;;;;;;;;5013220;28;20022;-63
2023/02/08 08:46:15;;;;;;;30.20;18.73;;;;;;;;;;4996709;28;20313;-60
2023/02/08 08:48:41;;;;;;;30.10;19.70;;;;;;;;;;4996926;28;20462;-62
2023/02/08 08:51:07;;;;;;;25.90;17.23;;;;;;;;;;5014070;28;20038;-59
2023/02/08 08:53:33;;;;;;;30.83;18.13;;;;;;;;;;5013160;28;20057;-60
2023/02/08 08:56:00;;;;;;;32.10;18.83;;;;;;;;;;4996354;28;20509;-59
2023/02/08 08:58:26;;;;;;;31.73;20.75;;;;;;;;;;5013659;28;20494;-59
2023/02/08 09:00:52;;;;;;;30.92;18.15;;;;;;;;;;4995930;28;20022;-60
2023/02/08 09:03:18;;;;;;;30.33;17.42;;;;;;;;;;4995497;28;20057;-60
2023/02/08 09:05:46;;;;;;;30.42;19.05;;;;;;;;;;5013969;28;20422;-60
2023/02/08 09:08:12;;;;;;;30.73;19.98;;;;;;;;;;4996383;28;20026;-60
2023/02/08 09:10:39;;;;;;;28.95;17.73;;;;;;;;;;5013544;28;20436;-59
2023/02/08 09:13:05;;;;;;;30.20;18.67;;;;;;;;;;5013605;28;20030;-61
2023/02/08 09:15:31;;;;;;;28.25;17.38;;;;;;;;;;5013821;28;20044;-60
2023/02/08 09:17:57;;;;;;;45.63;18.67;;;;;;;;;;4995290;28;20614;-60
2023/02/08 09:20:23;;;;;;;30.55;17.98;;;;;;;;;;5012792;28;20029;-59
2023/02/08 09:22:50;;;;;;;28.95;17.48;;;;;;;;;;4991164;28;20026;-63
2023/02/08 09:25:16;;;;;;;35.17;18.83;;;;;;;;;;5012731;28;20051;-60
2023/02/08 09:27:42;;;;;;;28.60;18.48;;;;;;;;;;5013160;28;20026;-62
2023/02/08 09:30:08;;;;;;;33.22;18.55;;;;;;;;;;5014208;28;20040;-67
2023/02/08 09:32:35;;;;;;;28.90;17.88;;;;;;;;;;5013981;28;20025;-68
2023/02/08 09:35:01;;;;;;;29.30;17.33;;;;;;;;;;4995826;28;20132;-66
2023/02/08 09:37:27;;;;;;;30.75;16.83;;;;;;;;;;5013668;28;20428;-67
2023/02/08 09:39:54;;;;;;;32.50;17.80;;;;;;;;;;4996164;28;20049;-67
2023/02/08 09:42:29;;;;;;;29.85;18.65;;;;;;;;;;5012720;28;20022;-65
2023/02/08 09:45:00;;;;;;;30.05;17.63;;;;;;;;;;4993625;28;20037;-67
2023/02/08 09:47:29;;;;;;;30.10;17.70;;;;;;;;;;5011642;28;20021;-66
2023/02/08 09:50:02;;;;;;;30.40;18.92;;;;;;;;;;4993729;28;20018;-70
2023/02/08 09:52:38;;;;;;;28.58;17.15;;;;;;;;;;4993800;28;20042;-66
2023/02/08 09:55:23;;;;;;;34.97;19.33;;;;;;;;;;4993071;28;20137;-67
2023/02/08 09:57:51;;;;;;;33.65;17.65;;;;;;;;;;4994309;28;20482;-68
2023/02/08 10:00:21;;;;;;;31.23;16.00;;;;;;;;;;5012764;28;20089;-67
2023/02/08 10:02:48;;;;;;;29.33;16.27;;;;;;;;;;5013169;28;20398;-66
2023/02/08 10:05:16;;;;;;;29.53;16.90;;;;;;;;;;5012444;28;20026;-67
2023/02/08 10:07:43;;;;;;;33.72;17.30;;;;;;;;;;4994967;28;20280;-66
2023/02/08 10:10:32;;;;;;;40.85;17.63;;;;;;;;;;4995794;28;20034;-66
2023/02/08 10:13:12;;;;;;;28.75;17.02;;;;;;;;;;4985557;28;20117;-67
2023/02/08 10:15:38;;;;;;;31.63;16.55;;;;;;;;;;5011863;28;20392;-67
2023/02/08 10:18:30;;;;;;;35.10;18.50;;;;;;;;;;5013322;28;20029;-66
2023/02/08 10:20:56;;;;;;;32.92;17.33;;;;;;;;;;4980366;28;20034;-65
2023/02/08 10:23:41;;;;;;;29.30;16.00;;;;;;;;;;4995130;28;20028;-67
2023/02/08 10:26:10;;;;;;;28.98;17.23;;;;;;;;;;4995496;28;20034;-66
2023/02/08 10:28:42;;;;;;;31.45;17.52;;;;;;;;;;4995349;28;20056;-67
2023/02/08 10:31:29;;;;;;;28.73;17.10;;;;;;;;;;4995370;28;20060;-66
2023/02/08 10:33:58;;;;;;;31.00;17.00;;;;;;;;;;5011854;28;20033;-69
2023/02/08 10:36:26;;;;;;;30.33;17.25;;;;;;;;;;4995706;28;20041;-67
2023/02/08 10:38:53;;;;;;;28.83;16.60;;;;;;;;;;5013636;28;20075;-68
2023/02/08 10:41:29;;;;;;;27.38;16.17;;;;;;;;;;4995140;28;20025;-67
2023/02/08 10:43:58;;;;;;;32.20;15.98;;;;;;;;;;4994726;28;20176;-69
2023/02/08 10:46:32;;;;;;;27.33;16.42;;;;;;;;;;4995215;28;20505;-67
2023/02/08 10:48:58;;;;;;;27.88;14.90;;;;;;;;;;4995423;28;20030;-68
2023/02/08 10:51:25;;;;;;;27.40;14.75;;;;;;;;;;4995237;28;20074;-67
2023/02/08 10:53:51;;;;;;;29.20;14.68;;;;;;;;;;5011925;28;20493;-67
2023/02/08 10:56:26;;;;;;;31.73;15.65;;;;;;;;;;5012359;28;20065;-65
2023/02/08 10:58:52;;;;;;;32.47;16.10;;;;;;;;;;4995574;28;20025;-65
2023/02/08 11:01:18;;;;;;;29.08;15.43;;;;;;;;;;4995319;28;20026;-66
2023/02/08 11:04:09;;;;;;;33.72;15.30;;;;;;;;;;4994194;28;20026;-67
2023/02/08 11:06:35;;;;;;;25.98;14.77;;;;;;;;;;4994988;28;20053;-66
2023/02/08 11:09:01;;;;;;;24.55;14.30;;;;;;;;;;5012912;28;20022;-65
2023/02/08 11:11:33;;;;;;;29.38;15.43;;;;;;;;;;5012564;28;20029;-66
2023/02/08 11:14:06;;;;;;;27.38;15.05;;;;;;;;;;5012048;28;20026;-67
2023/02/08 11:16:33;;;;;;;22.77;13.93;;;;;;;;;;5010160;28;20026;-65
2023/02/08 11:19:01;;;;;;;23.08;15.15;;;;;;;;;;5005450;28;20029;-67
2023/02/08 11:21:32;;;;;;;24.02;14.63;;;;;;;;;;5013049;28;20084;-66
2023/02/08 11:23:59;;;;;;;39.17;17.70;;;;;;;;;;4999579;28;20029;-67
2023/02/08 11:26:33;;;;;;;26.38;16.67;;;;;;;;;;5013009;28;20387;-68
2023/02/08 11:29:07;;;;;;;28.52;16.48;;;;;;;;;;5015114;28;20113;-66
2023/02/08 11:31:35;;;;;;;28.50;17.05;;;;;;;;;;5004310;28;20061;-69
2023/02/08 11:34:02;;;;;;;25.75;17.27;;;;;;;;;;5008503;28;20029;-69
2023/02/08 11:36:30;;;;;;;26.10;17.75;;;;;;;;;;4995325;28;20048;-69
2023/02/08 11:38:56;;;;;;;29.88;18.13;;;;;;;;;;4995109;28;20488;-69
2023/02/08 11:41:22;;;;;;;33.08;17.52;;;;;;;;;;5012640;28;20093;-69
2023/02/08 11:44:01;;;;;;;22.77;16.17;;;;;;;;;;4994648;28;20386;-66
2023/02/08 11:46:28;;;;;;;24.77;15.98;;;;;;;;;;4997832;28;20025;-69
2023/02/08 11:48:54;;;;;;;25.88;17.65;;;;;;;;;;5016387;28;20034;-68
2023/02/08 11:51:25;;;;;;;26.73;17.50;;;;;;;;;;5016125;28;20034;-68
2023/02/08 11:53:52;;;;;;;23.23;16.98;;;;;;;;;;4993018;28;20501;-69
2023/02/08 11:56:20;;;;;;;23.40;16.67;;;;;;;;;;4996960;28;20163;-69
2023/02/08 11:59:06;;;;;;;21.77;16.42;;;;;;;;;;5010712;28;20033;-70
2023/02/08 12:01:37;;;;;;;27.92;18.02;;;;;;;;;;5014177;28;20029;-69
2023/02/08 12:04:06;;;;;;;25.05;17.55;;;;;;;;;;5014058;28;20026;-69
2023/02/08 12:06:32;;;;;;;37.08;20.80;;;;;;;;;;5013882;28;20030;-69
2023/02/08 12:09:12;;;;;;;27.65;17.50;;;;;;;;;;4997238;28;20547;-68
2023/02/08 12:11:56;;;;;;;27.15;19.50;;;;;;;;;;4997689;28;20026;-69
2023/02/08 12:14:28;;;;;;;33.20;19.27;;;;;;;;;;4996192;28;20036;-69
2023/02/08 12:17:03;;;;;;;26.80;17.60;;;;;;;;;;5015023;28;20401;-67
2023/02/08 12:19:48;;;;;;;26.77;18.27;;;;;;;;;;5015047;28;20458;-68
2023/02/08 12:22:19;;;;;;;27.55;18.88;;;;;;;;;;5016172;28;20084;-69
2023/02/08 12:24:44;;;;;;;24.90;17.40;;;;;;;;;;5004550;28;20025;-69
2023/02/08 12:27:13;;;;;;;22.95;16.33;;;;;;;;;;5015676;28;20076;-68
2023/02/08 12:29:42;;;;;;;31.48;18.25;;;;;;;;;;5016312;28;20100;-68
2023/02/08 12:32:18;;;;;;;24.17;17.02;;;;;;;;;;5015839;28;20486;-68
2023/02/08 12:34:44;;;;;;;29.23;17.15;;;;;;;;;;5015178;28;20026;-69
2023/02/08 12:42:44;;;;;;;22.25;16.38;;;;;;;;;;5015901;28;20033;-68
2023/02/08 12:45:13;;;;;;;21.15;15.95;;;;;;;;;;5014874;28;20033;-68
2023/02/08 12:47:55;;;;;;;24.05;16.00;;;;;;;;;;4998174;28;20024;-68
2023/02/08 12:53:15;;;;;;;22.20;16.17;;;;;;;;;;5028288;28;20137;-60
2023/02/08 12:55:43;;;;;;;21.48;16.13;;;;;;;;;;5029373;28;20038;-57
2023/02/08 12:58:28;;;;;;;25.23;16.30;;;;;;;;;;5014863;28;20079;-62
2023/02/08 13:00:56;;;;;;;20.52;14.57;;;;;;;;;;5033411;28;20025;-63
2023/02/08 13:03:38;;;;;;;20.08;14.27;;;;;;;;;;5032704;28;20033;-59
2023/02/08 13:06:06;;;;;;;20.98;14.48;;;;;;;;;;5032740;28;20409;-58
2023/02/08 13:08:47;;;;;;;23.08;14.23;;;;;;;;;;5032302;28;20486;-60
2023/02/08 13:11:33;;;;;;;18.60;14.20;;;;;;;;;;5032445;28;20059;-60
2023/02/08 13:14:11;;;;;;;25.05;14.90;;;;;;;;;;5000977;28;20501;-62
2023/02/08 13:16:40;;;;;;;19.50;13.70;;;;;;;;;;5032414;28;20025;-62
2023/02/08 13:19:06;;;;;;;20.23;13.80;;;;;;;;;;5032278;28;20037;-61
2023/02/08 13:21:36;;;;;;;22.05;14.48;;;;;;;;;;5032073;28;20048;-60
2023/02/08 13:24:05;;;;;;;23.65;14.30;;;;;;;;;;5008753;28;20041;-61
2023/02/08 13:26:33;;;;;;;18.60;13.98;;;;;;;;;;5031575;28;20545;-62
2023/02/08 13:29:03;;;;;;;22.25;14.35;;;;;;;;;;5014828;28;20017;-62
2023/02/08 13:31:32;;;;;;;20.10;14.15;;;;;;;;;;5032355;28;20037;-62
2023/02/08 13:34:06;;;;;;;19.80;13.68;;;;;;;;;;5031689;28;20087;-62
2023/02/08 13:36:34;;;;;;;23.15;14.60;;;;;;;;;;5030808;28;20041;-61
2023/02/08 13:39:01;;;;;;;24.55;14.77;;;;;;;;;;5031613;28;20367;-62
2023/02/08 13:41:28;;;;;;;19.58;14.23;;;;;;;;;;5031713;28;20108;-61
2023/02/08 13:44:08;;;;;;;23.38;14.55;;;;;;;;;;5014114;28;20029;-62
2023/02/08 13:46:43;;;;;;;20.08;14.98;;;;;;;;;;5032126;28;20033;-62
2023/02/08 13:49:29;;;;;;;18.90;13.98;;;;;;;;;;5032567;28;20064;-62
2023/02/08 13:51:55;;;;;;;20.75;13.88;;;;;;;;;;5028790;28;20096;-59
2023/02/08 13:54:21;;;;;;;24.75;15.38;;;;;;;;;;5029857;28;20047;-57
2023/02/08 13:56:49;;;;;;;18.83;14.57;;;;;;;;;;5032114;28;20033;-58
2023/02/08 13:59:27;;;;;;;19.30;14.48;;;;;;;;;;5033105;28;20104;-57
2023/02/08 14:02:14;;;;;;;21.38;14.07;;;;;;;;;;5031802;28;20025;-57
2023/02/08 14:04:41;;;;;;;19.50;14.68;;;;;;;;;;5014654;28;20092;-57
2023/02/08 14:07:13;;;;;;;19.50;14.63;;;;;;;;;;5031788;28;20018;-58
2023/02/08 14:09:51;;;;;;;20.52;14.98;;;;;;;;;;5012205;28;20029;-58
2023/02/08 14:12:17;;;;;;;;;;;;;;;;;;5014359;28;20827;-59
2023/02/08 14:14:43;;;;;;;19.27;13.65;;;;;;;;;;5031555;28;19917;-56
2023/02/08 14:17:14;;;;;;;17.73;13.60;;;;;;;;;;5031799;28;20033;-58
2023/02/08 14:19:42;;;;;;;18.92;13.95;;;;;;;;;;5032021;28;20705;-57
2023/02/08 14:22:11;;;;;;;20.15;13.60;;;;;;;;;;5014146;28;20029;-58
2023/02/08 14:24:38;;;;;;;20.55;14.43;;;;;;;;;;5024739;28;20022;-59
2023/02/08 14:27:31;;;;;;;19.13;14.63;;;;;;;;;;5031112;28;20053;-58
2023/02/08 14:30:03;;;;;;;19.60;14.05;;;;;;;;;;5027027;28;20668;-59
2023/02/08 14:32:31;;;;;;;19.42;15.35;;;;;;;;;;5013422;28;20029;-60
2023/02/08 14:35:20;;;;;;;21.30;14.98;;;;;;;;;;5030949;28;20022;-58
2023/02/08 14:37:46;;;;;;;20.10;14.35;;;;;;;;;;5009415;28;20553;-58